createdAt,value
2023-01-12T00:03:10.781Z,11.27
2023-01-12T00:08:13.801Z,17.90
2023-01-12T00:13:16.832Z,12.07
2023-01-12T00:18:21.352Z,15.00
2023-01-12T00:23:30.585Z,12.30
2023-01-12T00:28:33.732Z,17.83
2023-01-12T00:33:39.203Z,14.40
2023-01-12T00:38:42.634Z,22.53
2023-01-12T00:44:02.842Z,17.33
2023-01-12T00:49:08.092Z,14.50
2023-01-12T00:54:11.303Z,15.60
2023-01-12T00:59:14.592Z,19.77
2023-01-12T01:04:19.401Z,22.63
2023-01-12T01:09:22.685Z,20.13
2023-01-12T01:14:26.236Z,17.23
2023-01-12T01:19:30.917Z,16.83
2023-01-12T01:24:33.886Z,16.03
2023-01-12T01:29:36.980Z,15.60
2023-01-12T01:34:42.047Z,20.80
2023-01-12T01:39:45.177Z,13.37
2023-01-12T01:44:55.508Z,10.67
2023-01-12T01:50:03.147Z,9.53
2023-01-12T01:55:09.528Z,8.90
2023-01-12T02:00:14.228Z,7.93
2023-01-12T02:05:21.906Z,6.67
2023-01-12T02:10:26.809Z,4.37
2023-01-12T02:15:57.328Z,7.60
2023-01-12T02:21:11.639Z,8.00
2023-01-12T02:26:47.228Z,10.70
2023-01-12T02:32:02.533Z,8.77
2023-01-12T02:37:14.514Z,12.00
2023-01-12T02:42:43.440Z,10.97
2023-01-12T02:47:51.994Z,9.93
2023-01-12T02:53:04.060Z,10.37
2023-01-12T02:58:11.062Z,8.40
2023-01-12T03:03:17.400Z,15.37
2023-01-12T03:08:28.785Z,17.00
2023-01-12T03:13:36.058Z,9.13
2023-01-12T03:18:46.062Z,7.60
2023-01-12T03:23:55.596Z,9.80
2023-01-12T03:29:05.320Z,11.27
2023-01-12T03:34:10.831Z,6.57
2023-01-12T03:39:22.957Z,7.30
2023-01-12T03:44:41.733Z,10.57
2023-01-12T03:49:52.032Z,4.90
2023-01-12T03:54:58.457Z,5.63
2023-01-12T04:00:04.064Z,8.20
2023-01-12T04:05:18.059Z,4.77
2023-01-12T04:10:21.078Z,6.33
2023-01-12T04:15:24.105Z,4.20
2023-01-12T04:20:28.705Z,10.07
2023-01-12T04:25:31.970Z,6.33
2023-01-12T04:30:35.968Z,7.83
2023-01-12T04:35:40.450Z,10.70
2023-01-12T04:40:43.423Z,6.10
2023-01-12T04:45:47.846Z,8.20
2023-01-12T04:50:52.186Z,8.77
2023-01-12T04:55:57.709Z,6.63
2023-01-12T05:01:09.479Z,6.37
2023-01-12T05:06:14.374Z,5.23
2023-01-12T05:11:17.442Z,4.50
2023-01-12T05:16:20.965Z,5.40
2023-01-12T05:21:26.594Z,3.53
2023-01-12T05:26:29.575Z,4.83
2023-01-12T05:31:35.434Z,2.30
2023-01-12T05:36:39.886Z,4.93
2023-01-12T05:42:02.995Z,5.27
2023-01-12T05:47:06.216Z,3.70
2023-01-12T05:52:10.687Z,2.70
2023-01-12T05:57:13.895Z,2.33
2023-01-12T06:02:17.965Z,2.20
2023-01-12T06:07:24.189Z,2.83
2023-01-12T06:12:44.827Z,2.27
2023-01-12T06:17:47.874Z,2.90
2023-01-12T06:22:52.224Z,1.73
2023-01-12T06:27:57.866Z,3.57
2023-01-12T06:33:03.120Z,1.87
2023-01-12T06:38:07.654Z,2.47
2023-01-12T06:43:10.776Z,3.30
2023-01-12T06:48:13.717Z,2.70
2023-01-12T06:53:18.175Z,2.73
2023-01-12T06:58:21.173Z,3.63
2023-01-12T07:03:24.555Z,4.37
2023-01-12T07:08:29.282Z,2.53
2023-01-12T07:13:32.845Z,2.80
2023-01-12T07:18:36.332Z,3.37
2023-01-12T07:23:42.269Z,2.77
2023-01-12T07:28:45.457Z,2.17
2023-01-12T07:33:48.942Z,5.37
2023-01-12T07:38:55.856Z,2.33
2023-01-12T07:43:59.214Z,1.07
2023-01-12T07:49:02.277Z,3.43
2023-01-12T07:54:06.890Z,3.63
2023-01-12T07:59:10.327Z,4.87
2023-01-12T08:04:14.016Z,6.20
2023-01-12T08:09:18.597Z,5.23
2023-01-12T08:14:30.372Z,5.60
2023-01-12T08:19:42.002Z,10.27
2023-01-12T08:25:02.421Z,4.53
2023-01-12T08:30:08.736Z,2.77
2023-01-12T08:35:15.071Z,2.30
2023-01-12T08:40:19.965Z,3.00
2023-01-12T08:45:23.062Z,2.50
2023-01-12T08:50:30.166Z,1.43
2023-01-12T08:55:34.763Z,3.73
2023-01-12T09:00:37.870Z,2.00
2023-01-12T09:05:40.962Z,3.10
2023-01-12T09:10:45.441Z,1.47
2023-01-12T09:16:01.426Z,3.93
2023-01-12T09:21:12.978Z,1.87
2023-01-12T09:26:20.416Z,2.67
2023-01-12T09:31:26.542Z,4.57
2023-01-12T09:36:31.759Z,2.57
2023-01-12T09:41:57.427Z,2.87
2023-01-12T09:47:00.906Z,2.83
2023-01-12T09:52:13.321Z,2.83
2023-01-12T09:57:51.677Z,2.13
2023-01-12T10:03:04.765Z,1.50
2023-01-12T10:08:17.442Z,0.90
2023-01-12T10:13:22.976Z,2.00
2023-01-12T10:18:32.257Z,0.60
2023-01-12T10:23:35.395Z,1.63
2023-01-12T10:28:43.787Z,1.43
2023-01-12T10:34:04.999Z,1.13
2023-01-12T10:39:30.407Z,1.30
2023-01-12T10:44:34.858Z,1.17
2023-01-12T10:49:38.369Z,0.60
2023-01-12T10:54:42.625Z,0.70
2023-01-12T10:59:54.651Z,1.57
2023-01-12T11:04:57.645Z,0.67
2023-01-12T11:10:20.702Z,0.63
2023-01-12T11:15:25.338Z,0.70
2023-01-12T11:20:35.361Z,0.80
2023-01-12T11:25:44.137Z,0.90
2023-01-12T11:30:54.057Z,0.80
2023-01-12T11:36:04.199Z,1.07
2023-01-12T11:41:11.284Z,0.60
2023-01-12T11:46:22.811Z,0.70
2023-01-12T11:51:26.281Z,0.90
2023-01-12T11:57:02.275Z,0.63
2023-01-12T12:02:22.590Z,1.20
2023-01-12T12:07:37.479Z,1.07
2023-01-12T12:12:49.030Z,1.20
2023-01-12T12:18:06.442Z,1.97
2023-01-12T12:23:25.525Z,0.87
2023-01-12T12:28:48.987Z,1.57
2023-01-12T12:34:11.223Z,1.30
2023-01-12T12:39:34.565Z,13.20
2023-01-12T12:45:14.668Z,3.10
2023-01-12T12:50:23.293Z,4.60
2023-01-12T12:55:28.306Z,3.00
2023-01-12T13:00:40.407Z,2.17
2023-01-12T13:05:48.279Z,1.80
2023-01-12T13:10:54.596Z,1.90
2023-01-12T13:16:45.481Z,2.73
2023-01-12T13:21:58.547Z,2.67
2023-01-12T13:27:02.072Z,2.07
2023-01-12T13:32:43.610Z,3.30
2023-01-12T13:37:53.458Z,1.70
2023-01-12T13:43:26.307Z,1.87
2023-01-12T13:48:33.519Z,1.50
2023-01-12T13:53:39.282Z,2.67
2023-01-12T13:58:44.483Z,2.40
2023-01-12T14:04:22.819Z,2.40
2023-01-12T14:09:42.078Z,2.43
2023-01-12T14:15:36.066Z,1.63
2023-01-12T14:20:45.389Z,1.50
2023-01-12T14:26:05.955Z,1.57
2023-01-12T14:31:16.905Z,1.60
2023-01-12T14:36:32.453Z,1.20
2023-01-12T14:41:54.940Z,1.50
2023-01-12T14:46:58.126Z,2.20
2023-01-12T14:52:26.306Z,1.57
2023-01-12T14:57:34.966Z,4.20
2023-01-12T15:02:41.303Z,1.73
2023-01-12T15:07:55.749Z,1.50
2023-01-12T15:13:14.001Z,1.60
2023-01-12T15:18:34.582Z,3.20
2023-01-12T15:23:58.140Z,3.47
2023-01-12T15:29:05.496Z,2.17
2023-01-12T15:34:14.128Z,1.50
2023-01-12T15:40:01.608Z,3.37
2023-01-12T15:45:19.228Z,1.47
2023-01-12T15:50:22.731Z,1.50
2023-01-12T15:55:31.628Z,1.17
2023-01-12T16:00:42.371Z,1.30
2023-01-12T16:05:47.976Z,2.17
2023-01-12T16:11:05.191Z,1.50
2023-01-12T16:16:16.077Z,2.70
2023-01-12T16:21:22.591Z,1.97
2023-01-12T16:26:31.029Z,1.20
2023-01-12T16:31:39.509Z,1.13
2023-01-12T16:36:42.796Z,1.30
2023-01-12T16:41:46.013Z,1.20
2023-01-12T16:46:51.222Z,4.30
2023-01-12T16:51:55.458Z,1.73
2023-01-12T16:57:01.828Z,2.10
2023-01-12T17:02:08.405Z,1.60
2023-01-12T17:07:12.855Z,1.70
2023-01-12T17:12:16.504Z,2.83
2023-01-12T17:17:21.199Z,1.83
2023-01-12T17:22:25.768Z,1.80
2023-01-12T17:27:29.101Z,2.10
2023-01-12T17:32:34.334Z,2.00
2023-01-12T17:37:37.971Z,1.93
2023-01-12T17:42:58.971Z,1.30
2023-01-12T17:48:03.742Z,1.60
2023-01-12T17:53:09.310Z,1.70
2023-01-12T17:58:12.921Z,1.80
2023-01-12T18:03:17.601Z,2.13
2023-01-12T18:08:20.867Z,1.60
2023-01-12T18:13:24.431Z,1.80
2023-01-12T18:18:30.162Z,2.10
2023-01-12T18:23:33.479Z,1.60
2023-01-12T18:28:36.692Z,1.50
2023-01-12T18:33:41.784Z,1.87
2023-01-12T18:38:45.233Z,3.03
2023-01-12T18:43:49.339Z,2.50
2023-01-12T18:48:53.867Z,2.00
2023-01-12T18:53:57.817Z,2.70
2023-01-12T18:59:04.366Z,2.67
2023-01-12T19:04:10.107Z,2.80
2023-01-12T19:09:31.365Z,2.70
2023-01-12T19:14:53.203Z,3.27
2023-01-12T19:19:59.043Z,2.70
2023-01-12T19:25:19.493Z,2.80
2023-01-12T19:30:23.410Z,3.63
2023-01-12T19:35:30.551Z,3.57
2023-01-12T19:40:36.688Z,6.77
2023-01-12T19:45:40.615Z,4.10
2023-01-12T19:50:45.692Z,3.40
2023-01-12T19:55:51.104Z,3.93
2023-01-12T20:00:55.762Z,2.60
2023-01-12T20:06:00.332Z,3.53
2023-01-12T20:11:05.477Z,4.17
2023-01-12T20:16:10.638Z,4.50
2023-01-12T20:21:15.855Z,3.93
2023-01-12T20:26:19.016Z,4.50
2023-01-12T20:31:22.329Z,2.63
2023-01-12T20:36:27.229Z,4.50
2023-01-12T20:41:30.461Z,3.33
2023-01-12T20:46:33.672Z,4.67
2023-01-12T20:51:38.281Z,5.30
2023-01-12T20:56:41.210Z,4.20
2023-01-12T21:01:44.619Z,3.03
2023-01-12T21:06:49.230Z,2.50
2023-01-12T21:11:52.321Z,3.60
2023-01-12T21:16:55.821Z,2.37
2023-01-12T21:22:00.618Z,4.07
2023-01-12T21:27:04.088Z,5.73
2023-01-12T21:32:07.399Z,3.63
2023-01-12T21:37:11.941Z,6.07
2023-01-12T21:42:32.717Z,5.73
2023-01-12T21:47:35.854Z,5.10
2023-01-12T21:52:41.635Z,4.20
2023-01-12T21:57:46.001Z,6.30
2023-01-12T22:02:51.139Z,5.20
2023-01-12T22:07:57.856Z,7.73
2023-01-12T22:13:04.208Z,7.00
2023-01-12T22:18:07.816Z,6.13
2023-01-12T22:23:14.201Z,6.73
2023-01-12T22:28:17.432Z,5.83
2023-01-12T22:33:20.611Z,9.70
2023-01-12T22:38:25.105Z,13.03
2023-01-12T22:43:28.169Z,10.37
2023-01-12T22:48:34.070Z,12.00
2023-01-12T22:53:38.450Z,13.03
2023-01-12T22:58:41.936Z,13.17
2023-01-12T23:03:45.540Z,13.53
2023-01-12T23:08:50.540Z,16.73
2023-01-12T23:13:54.433Z,15.57
2023-01-12T23:18:57.515Z,15.47
2023-01-12T23:24:02.363Z,19.43
2023-01-12T23:29:05.436Z,13.90
2023-01-12T23:34:08.547Z,17.10
2023-01-12T23:39:13.018Z,18.40
2023-01-12T23:44:16.125Z,18.33
2023-01-12T23:49:19.188Z,19.40
2023-01-12T23:54:23.615Z,17.83
2023-01-12T23:59:26.684Z,18.50
